sensor_id;sensor_type;location;lat;lon;timestamp;P1;durP1;ratioP1;P2;durP2;ratioP2
68310;SDS011;55157;51.036;17.058;2023-04-01T00:00:48;14.20;;;7.65;;
68310;SDS011;55157;51.036;17.058;2023-04-01T00:03:13;15.27;;;7.68;;
68310;SDS011;55157;51.036;17.058;2023-04-01T00:05:39;13.77;;;7.38;;
68310;SDS011;55157;51.036;17.058;2023-04-01T00:08:04;13.38;;;6.63;;
68310;SDS011;55157;51.036;17.058;2023-04-01T00:10:29;10.70;;;6.07;;
68310;SDS011;55157;51.036;17.058;2023-04-01T00:12:56;16.65;;;8.90;;
68310;SDS011;55157;51.036;17.058;2023-04-01T00:15:21;18.27;;;9.90;;
68310;SDS011;55157;51.036;17.058;2023-04-01T00:17:46;38.50;;;17.85;;
68310;SDS011;55157;51.036;17.058;2023-04-01T00:20:12;23.58;;;12.25;;
68310;SDS011;55157;51.036;17.058;2023-04-01T00:22:37;17.92;;;9.50;;
68310;SDS011;55157;51.036;17.058;2023-04-01T00:25:02;18.92;;;9.68;;
68310;SDS011;55157;51.036;17.058;2023-04-01T00:27:28;32.15;;;19.73;;
68310;SDS011;55157;51.036;17.058;2023-04-01T00:29:54;30.40;;;18.13;;
68310;SDS011;55157;51.036;17.058;2023-04-01T00:32:20;18.67;;;13.65;;
68310;SDS011;55157;51.036;17.058;2023-04-01T00:34:45;18.10;;;12.48;;
68310;SDS011;55157;51.036;17.058;2023-04-01T00:37:10;14.80;;;9.90;;
68310;SDS011;55157;51.036;17.058;2023-04-01T00:39:36;14.60;;;10.63;;
68310;SDS011;55157;51.036;17.058;2023-04-01T00:42:01;14.40;;;9.13;;
68310;SDS011;55157;51.036;17.058;2023-04-01T00:44:28;14.60;;;9.25;;
68310;SDS011;55157;51.036;17.058;2023-04-01T00:46:55;14.02;;;8.73;;
68310;SDS011;55157;51.036;17.058;2023-04-01T00:49:21;10.57;;;8.10;;
68310;SDS011;55157;51.036;17.058;2023-04-01T00:51:48;13.80;;;8.20;;
68310;SDS011;55157;51.036;17.058;2023-04-01T00:54:14;11.70;;;8.30;;
68310;SDS011;55157;51.036;17.058;2023-04-01T00:56:41;13.20;;;9.00;;
68310;SDS011;55157;51.036;17.058;2023-04-01T00:59:11;15.30;;;9.55;;
68310;SDS011;55157;51.036;17.058;2023-04-01T01:01:37;14.13;;;8.55;;
68310;SDS011;55157;51.036;17.058;2023-04-01T01:04:03;11.98;;;8.65;;
68310;SDS011;55157;51.036;17.058;2023-04-01T01:06:39;11.80;;;8.20;;
68310;SDS011;55157;51.036;17.058;2023-04-01T01:11:54;10.55;;;8.45;;
68310;SDS011;55157;51.036;17.058;2023-04-01T01:14:25;18.65;;;8.38;;
68310;SDS011;55157;51.036;17.058;2023-04-01T01:16:52;13.77;;;8.35;;
68310;SDS011;55157;51.036;17.058;2023-04-01T01:19:26;9.63;;;8.45;;
68310;SDS011;55157;51.036;17.058;2023-04-01T01:21:55;9.77;;;7.90;;
68310;SDS011;55157;51.036;17.058;2023-04-01T01:27:08;12.70;;;8.52;;
68310;SDS011;55157;51.036;17.058;2023-04-01T01:29:39;14.30;;;8.38;;
68310;SDS011;55157;51.036;17.058;2023-04-01T01:32:06;10.27;;;8.45;;
68310;SDS011;55157;51.036;17.058;2023-04-01T01:34:35;11.27;;;7.63;;
68310;SDS011;55157;51.036;17.058;2023-04-01T01:37:03;10.38;;;8.27;;
68310;SDS011;55157;51.036;17.058;2023-04-01T01:39:30;10.68;;;8.23;;
68310;SDS011;55157;51.036;17.058;2023-04-01T01:41:56;11.43;;;7.70;;
68310;SDS011;55157;51.036;17.058;2023-04-01T01:44:23;12.18;;;7.55;;
68310;SDS011;55157;51.036;17.058;2023-04-01T01:46:49;11.00;;;8.57;;
68310;SDS011;55157;51.036;17.058;2023-04-01T01:49:14;9.77;;;7.50;;
68310;SDS011;55157;51.036;17.058;2023-04-01T01:51:40;11.73;;;8.75;;
68310;SDS011;55157;51.036;17.058;2023-04-01T01:54:07;13.43;;;8.55;;
68310;SDS011;55157;51.036;17.058;2023-04-01T01:56:36;14.15;;;8.15;;
68310;SDS011;55157;51.036;17.058;2023-04-01T01:59:02;9.55;;;7.75;;
68310;SDS011;55157;51.036;17.058;2023-04-01T02:01:29;13.10;;;7.65;;
68310;SDS011;55157;51.036;17.058;2023-04-01T02:03:54;11.20;;;8.10;;
68310;SDS011;55157;51.036;17.058;2023-04-01T02:06:22;15.18;;;8.30;;
68310;SDS011;55157;51.036;17.058;2023-04-01T02:08:49;9.68;;;7.70;;
68310;SDS011;55157;51.036;17.058;2023-04-01T02:11:17;13.73;;;8.02;;
68310;SDS011;55157;51.036;17.058;2023-04-01T02:13:44;8.57;;;7.63;;
68310;SDS011;55157;51.036;17.058;2023-04-01T02:16:13;11.48;;;7.55;;
68310;SDS011;55157;51.036;17.058;2023-04-01T02:18:40;8.77;;;6.68;;
68310;SDS011;55157;51.036;17.058;2023-04-01T02:21:06;12.27;;;6.90;;
68310;SDS011;55157;51.036;17.058;2023-04-01T02:23:32;10.93;;;7.50;;
68310;SDS011;55157;51.036;17.058;2023-04-01T02:25:58;10.07;;;6.40;;
68310;SDS011;55157;51.036;17.058;2023-04-01T02:28:25;12.50;;;6.32;;
68310;SDS011;55157;51.036;17.058;2023-04-01T02:30:50;11.77;;;6.10;;
68310;SDS011;55157;51.036;17.058;2023-04-01T02:33:16;9.02;;;6.07;;
68310;SDS011;55157;51.036;17.058;2023-04-01T02:35:42;11.85;;;5.78;;
68310;SDS011;55157;51.036;17.058;2023-04-01T02:38:07;11.45;;;6.00;;
68310;SDS011;55157;51.036;17.058;2023-04-01T02:40:43;10.77;;;6.40;;
68310;SDS011;55157;51.036;17.058;2023-04-01T02:43:08;17.95;;;5.78;;
68310;SDS011;55157;51.036;17.058;2023-04-01T02:45:35;6.28;;;5.18;;
68310;SDS011;55157;51.036;17.058;2023-04-01T02:48:00;9.13;;;5.50;;
68310;SDS011;55157;51.036;17.058;2023-04-01T02:50:26;7.78;;;5.63;;
68310;SDS011;55157;51.036;17.058;2023-04-01T02:52:51;9.70;;;6.18;;
68310;SDS011;55157;51.036;17.058;2023-04-01T02:55:16;9.90;;;6.55;;
68310;SDS011;55157;51.036;17.058;2023-04-01T02:57:41;14.77;;;6.13;;
68310;SDS011;55157;51.036;17.058;2023-04-01T03:00:07;7.78;;;5.47;;
68310;SDS011;55157;51.036;17.058;2023-04-01T03:02:34;6.97;;;5.88;;
68310;SDS011;55157;51.036;17.058;2023-04-01T03:04:59;7.38;;;5.95;;
68310;SDS011;55157;51.036;17.058;2023-04-01T03:07:24;7.28;;;6.05;;
68310;SDS011;55157;51.036;17.058;2023-04-01T03:09:49;10.27;;;5.47;;
68310;SDS011;55157;51.036;17.058;2023-04-01T03:12:15;14.38;;;5.85;;
68310;SDS011;55157;51.036;17.058;2023-04-01T03:14:40;12.52;;;5.80;;
68310;SDS011;55157;51.036;17.058;2023-04-01T03:17:05;10.98;;;6.10;;
68310;SDS011;55157;51.036;17.058;2023-04-01T03:19:32;7.85;;;5.95;;
68310;SDS011;55157;51.036;17.058;2023-04-01T03:21:57;11.55;;;6.78;;
68310;SDS011;55157;51.036;17.058;2023-04-01T03:24:22;8.35;;;5.90;;
68310;SDS011;55157;51.036;17.058;2023-04-01T03:26:48;12.50;;;6.55;;
68310;SDS011;55157;51.036;17.058;2023-04-01T03:29:13;11.18;;;6.85;;
68310;SDS011;55157;51.036;17.058;2023-04-01T03:31:38;10.30;;;6.97;;
68310;SDS011;55157;51.036;17.058;2023-04-01T03:34:03;9.85;;;6.15;;
68310;SDS011;55157;51.036;17.058;2023-04-01T03:36:30;9.48;;;7.90;;
68310;SDS011;55157;51.036;17.058;2023-04-01T03:38:55;10.15;;;7.30;;
68310;SDS011;55157;51.036;17.058;2023-04-01T03:41:20;9.60;;;6.63;;
68310;SDS011;55157;51.036;17.058;2023-04-01T03:43:46;7.50;;;5.80;;
68310;SDS011;55157;51.036;17.058;2023-04-01T03:46:11;9.52;;;5.57;;
68310;SDS011;55157;51.036;17.058;2023-04-01T03:48:36;13.40;;;6.53;;
68310;SDS011;55157;51.036;17.058;2023-04-01T03:51:01;11.35;;;6.50;;
68310;SDS011;55157;51.036;17.058;2023-04-01T03:53:32;8.82;;;6.55;;
68310;SDS011;55157;51.036;17.058;2023-04-01T03:55:57;14.27;;;7.72;;
68310;SDS011;55157;51.036;17.058;2023-04-01T03:58:23;8.55;;;7.35;;
68310;SDS011;55157;51.036;17.058;2023-04-01T04:00:48;11.80;;;8.10;;
68310;SDS011;55157;51.036;17.058;2023-04-01T04:03:13;17.23;;;8.27;;
68310;SDS011;55157;51.036;17.058;2023-04-01T04:05:45;13.50;;;9.05;;
68310;SDS011;55157;51.036;17.058;2023-04-01T04:08:10;8.50;;;6.68;;
68310;SDS011;55157;51.036;17.058;2023-04-01T04:10:37;13.23;;;7.68;;
68310;SDS011;55157;51.036;17.058;2023-04-01T04:13:03;11.70;;;7.03;;
68310;SDS011;55157;51.036;17.058;2023-04-01T04:15:28;11.80;;;6.82;;
68310;SDS011;55157;51.036;17.058;2023-04-01T04:17:53;11.75;;;7.60;;
68310;SDS011;55157;51.036;17.058;2023-04-01T04:20:18;10.20;;;7.03;;
68310;SDS011;55157;51.036;17.058;2023-04-01T04:22:44;10.55;;;6.35;;
68310;SDS011;55157;51.036;17.058;2023-04-01T04:25:09;7.38;;;6.00;;
68310;SDS011;55157;51.036;17.058;2023-04-01T04:27:36;8.43;;;6.30;;
68310;SDS011;55157;51.036;17.058;2023-04-01T04:30:01;8.10;;;6.32;;
68310;SDS011;55157;51.036;17.058;2023-04-01T04:32:26;13.88;;;6.60;;
68310;SDS011;55157;51.036;17.058;2023-04-01T04:34:52;7.75;;;5.60;;
68310;SDS011;55157;51.036;17.058;2023-04-01T04:37:17;12.95;;;6.25;;
68310;SDS011;55157;51.036;17.058;2023-04-01T04:39:42;11.77;;;6.43;;
68310;SDS011;55157;51.036;17.058;2023-04-01T04:42:07;13.98;;;5.60;;
68310;SDS011;55157;51.036;17.058;2023-04-01T04:44:34;7.03;;;5.75;;
68310;SDS011;55157;51.036;17.058;2023-04-01T04:47:00;9.35;;;6.40;;
68310;SDS011;55157;51.036;17.058;2023-04-01T04:49:25;8.75;;;6.43;;
68310;SDS011;55157;51.036;17.058;2023-04-01T04:51:51;12.13;;;6.00;;
68310;SDS011;55157;51.036;17.058;2023-04-01T04:54:17;9.55;;;5.60;;
68310;SDS011;55157;51.036;17.058;2023-04-01T04:56:43;6.05;;;4.80;;
68310;SDS011;55157;51.036;17.058;2023-04-01T04:59:08;13.20;;;5.47;;
68310;SDS011;55157;51.036;17.058;2023-04-01T05:01:35;7.28;;;5.65;;
68310;SDS011;55157;51.036;17.058;2023-04-01T05:04:00;11.55;;;6.93;;
68310;SDS011;55157;51.036;17.058;2023-04-01T05:06:25;9.30;;;6.05;;
68310;SDS011;55157;51.036;17.058;2023-04-01T05:08:50;10.00;;;6.55;;
68310;SDS011;55157;51.036;17.058;2023-04-01T05:11:17;10.77;;;7.70;;
68310;SDS011;55157;51.036;17.058;2023-04-01T05:13:42;9.52;;;6.28;;
68310;SDS011;55157;51.036;17.058;2023-04-01T05:16:08;9.40;;;6.13;;
68310;SDS011;55157;51.036;17.058;2023-04-01T05:18:35;10.50;;;6.38;;
68310;SDS011;55157;51.036;17.058;2023-04-01T05:21:00;12.90;;;6.80;;
68310;SDS011;55157;51.036;17.058;2023-04-01T05:23:26;8.05;;;6.45;;
68310;SDS011;55157;51.036;17.058;2023-04-01T05:25:51;8.38;;;6.18;;
68310;SDS011;55157;51.036;17.058;2023-04-01T05:28:16;12.88;;;7.55;;
68310;SDS011;55157;51.036;17.058;2023-04-01T05:30:42;14.98;;;6.55;;
68310;SDS011;55157;51.036;17.058;2023-04-01T05:33:08;10.10;;;6.22;;
68310;SDS011;55157;51.036;17.058;2023-04-01T05:35:34;12.43;;;6.20;;
68310;SDS011;55157;51.036;17.058;2023-04-01T05:38:00;10.80;;;5.95;;
68310;SDS011;55157;51.036;17.058;2023-04-01T05:40:25;8.55;;;5.65;;
68310;SDS011;55157;51.036;17.058;2023-04-01T05:42:50;8.05;;;5.45;;
68310;SDS011;55157;51.036;17.058;2023-04-01T05:45:16;9.07;;;5.57;;
68310;SDS011;55157;51.036;17.058;2023-04-01T05:47:41;11.65;;;6.03;;
68310;SDS011;55157;51.036;17.058;2023-04-01T05:50:06;7.82;;;5.13;;
68310;SDS011;55157;51.036;17.058;2023-04-01T05:52:33;10.07;;;5.60;;
68310;SDS011;55157;51.036;17.058;2023-04-01T05:54:58;9.23;;;5.80;;
68310;SDS011;55157;51.036;17.058;2023-04-01T05:57:24;10.00;;;4.80;;
68310;SDS011;55157;51.036;17.058;2023-04-01T05:59:49;7.13;;;5.28;;
68310;SDS011;55157;51.036;17.058;2023-04-01T06:02:15;9.68;;;5.55;;
68310;SDS011;55157;51.036;17.058;2023-04-01T06:04:41;9.85;;;5.30;;
68310;SDS011;55157;51.036;17.058;2023-04-01T06:07:10;9.75;;;5.40;;
68310;SDS011;55157;51.036;17.058;2023-04-01T06:09:37;9.88;;;4.93;;
68310;SDS011;55157;51.036;17.058;2023-04-01T06:12:17;11.10;;;4.72;;
68310;SDS011;55157;51.036;17.058;2023-04-01T06:14:49;9.60;;;4.70;;
68310;SDS011;55157;51.036;17.058;2023-04-01T06:17:20;12.57;;;5.35;;
68310;SDS011;55157;51.036;17.058;2023-04-01T06:19:50;6.60;;;4.40;;
68310;SDS011;55157;51.036;17.058;2023-04-01T06:22:32;7.88;;;5.13;;
68310;SDS011;55157;51.036;17.058;2023-04-01T06:25:22;9.07;;;5.30;;
68310;SDS011;55157;51.036;17.058;2023-04-01T06:27:53;10.85;;;6.53;;
68310;SDS011;55157;51.036;17.058;2023-04-01T06:30:24;9.43;;;6.77;;
68310;SDS011;55157;51.036;17.058;2023-04-01T06:32:56;19.50;;;7.07;;
68310;SDS011;55157;51.036;17.058;2023-04-01T06:35:31;13.83;;;8.30;;
68310;SDS011;55157;51.036;17.058;2023-04-01T06:40:45;12.32;;;7.78;;
68310;SDS011;55157;51.036;17.058;2023-04-01T06:43:15;10.80;;;7.85;;
68310;SDS011;55157;51.036;17.058;2023-04-01T06:45:46;14.55;;;7.65;;
68310;SDS011;55157;51.036;17.058;2023-04-01T06:51:00;12.50;;;7.30;;
68310;SDS011;55157;51.036;17.058;2023-04-01T06:53:28;9.02;;;6.75;;
68310;SDS011;55157;51.036;17.058;2023-04-01T06:55:57;10.50;;;6.95;;
68310;SDS011;55157;51.036;17.058;2023-04-01T06:58:25;8.85;;;6.53;;
68310;SDS011;55157;51.036;17.058;2023-04-01T07:00:51;12.70;;;7.25;;
68310;SDS011;55157;51.036;17.058;2023-04-01T07:03:20;11.80;;;7.20;;
68310;SDS011;55157;51.036;17.058;2023-04-01T07:05:46;10.30;;;5.85;;
68310;SDS011;55157;51.036;17.058;2023-04-01T07:08:12;7.18;;;5.82;;
68310;SDS011;55157;51.036;17.058;2023-04-01T07:10:41;8.32;;;5.25;;
68310;SDS011;55157;51.036;17.058;2023-04-01T07:13:12;7.55;;;4.18;;
68310;SDS011;55157;51.036;17.058;2023-04-01T07:15:39;8.65;;;3.92;;
68310;SDS011;55157;51.036;17.058;2023-04-01T07:18:07;10.63;;;4.85;;
68310;SDS011;55157;51.036;17.058;2023-04-01T07:20:35;6.60;;;3.42;;
68310;SDS011;55157;51.036;17.058;2023-04-01T07:23:02;6.95;;;3.72;;
68310;SDS011;55157;51.036;17.058;2023-04-01T07:25:29;4.93;;;3.10;;
68310;SDS011;55157;51.036;17.058;2023-04-01T07:27:56;8.65;;;3.38;;
68310;SDS011;55157;51.036;17.058;2023-04-01T07:30:24;5.35;;;3.08;;
68310;SDS011;55157;51.036;17.058;2023-04-01T07:32:54;8.02;;;3.17;;
68310;SDS011;55157;51.036;17.058;2023-04-01T07:35:23;6.45;;;3.53;;
68310;SDS011;55157;51.036;17.058;2023-04-01T07:37:55;10.23;;;3.40;;
68310;SDS011;55157;51.036;17.058;2023-04-01T07:40:25;14.00;;;4.00;;
68310;SDS011;55157;51.036;17.058;2023-04-01T07:42:57;11.00;;;3.72;;
68310;SDS011;55157;51.036;17.058;2023-04-01T07:45:30;6.53;;;2.75;;
68310;SDS011;55157;51.036;17.058;2023-04-01T07:48:00;8.32;;;2.92;;
68310;SDS011;55157;51.036;17.058;2023-04-01T07:50:27;9.73;;;2.50;;
68310;SDS011;55157;51.036;17.058;2023-04-01T07:52:55;8.75;;;2.72;;
68310;SDS011;55157;51.036;17.058;2023-04-01T07:55:25;6.25;;;2.83;;
68310;SDS011;55157;51.036;17.058;2023-04-01T07:57:55;7.32;;;2.78;;
68310;SDS011;55157;51.036;17.058;2023-04-01T08:00:24;6.03;;;2.90;;
68310;SDS011;55157;51.036;17.058;2023-04-01T08:02:58;5.53;;;2.75;;
68310;SDS011;55157;51.036;17.058;2023-04-01T08:05:29;7.13;;;2.33;;
68310;SDS011;55157;51.036;17.058;2023-04-01T08:07:59;8.13;;;2.70;;
68310;SDS011;55157;51.036;17.058;2023-04-01T08:10:30;8.75;;;3.08;;
68310;SDS011;55157;51.036;17.058;2023-04-01T08:12:59;10.60;;;3.08;;
68310;SDS011;55157;51.036;17.058;2023-04-01T08:15:27;6.50;;;2.70;;
68310;SDS011;55157;51.036;17.058;2023-04-01T08:17:56;9.68;;;3.22;;
68310;SDS011;55157;51.036;17.058;2023-04-01T08:20:27;8.13;;;2.97;;
68310;SDS011;55157;51.036;17.058;2023-04-01T08:22:53;6.65;;;3.15;;
68310;SDS011;55157;51.036;17.058;2023-04-01T08:25:22;8.27;;;2.75;;
68310;SDS011;55157;51.036;17.058;2023-04-01T08:27:50;7.45;;;3.00;;
68310;SDS011;55157;51.036;17.058;2023-04-01T08:30:17;10.50;;;3.30;;
68310;SDS011;55157;51.036;17.058;2023-04-01T08:32:44;11.73;;;2.88;;
68310;SDS011;55157;51.036;17.058;2023-04-01T08:35:14;10.73;;;2.85;;
68310;SDS011;55157;51.036;17.058;2023-04-01T08:37:44;5.72;;;2.20;;
68310;SDS011;55157;51.036;17.058;2023-04-01T08:40:16;8.90;;;3.75;;
68310;SDS011;55157;51.036;17.058;2023-04-01T08:42:51;7.40;;;2.80;;
68310;SDS011;55157;51.036;17.058;2023-04-01T08:45:26;7.32;;;2.72;;
68310;SDS011;55157;51.036;17.058;2023-04-01T08:48:07;7.13;;;2.75;;
68310;SDS011;55157;51.036;17.058;2023-04-01T08:50:38;8.98;;;3.05;;
68310;SDS011;55157;51.036;17.058;2023-04-01T08:53:13;4.88;;;2.70;;
68310;SDS011;55157;51.036;17.058;2023-04-01T08:55:44;8.57;;;2.95;;
68310;SDS011;55157;51.036;17.058;2023-04-01T08:58:22;5.40;;;2.60;;
68310;SDS011;55157;51.036;17.058;2023-04-01T09:00:53;6.90;;;2.47;;
68310;SDS011;55157;51.036;17.058;2023-04-01T09:03:25;11.07;;;3.08;;
68310;SDS011;55157;51.036;17.058;2023-04-01T09:08:47;7.22;;;2.67;;
68310;SDS011;55157;51.036;17.058;2023-04-01T09:11:21;8.77;;;3.67;;
68310;SDS011;55157;51.036;17.058;2023-04-01T09:13:58;5.13;;;2.50;;
68310;SDS011;55157;51.036;17.058;2023-04-01T09:16:31;6.60;;;2.50;;
68310;SDS011;55157;51.036;17.058;2023-04-01T09:19:06;12.05;;;2.40;;
68310;SDS011;55157;51.036;17.058;2023-04-01T09:21:36;9.75;;;3.03;;
68310;SDS011;55157;51.036;17.058;2023-04-01T09:24:16;6.40;;;3.08;;
68310;SDS011;55157;51.036;17.058;2023-04-01T09:27:01;5.35;;;2.00;;
68310;SDS011;55157;51.036;17.058;2023-04-01T09:29:31;6.95;;;2.92;;
68310;SDS011;55157;51.036;17.058;2023-04-01T09:32:04;5.72;;;2.38;;
68310;SDS011;55157;51.036;17.058;2023-04-01T09:34:37;6.50;;;2.67;;
68310;SDS011;55157;51.036;17.058;2023-04-01T09:37:17;5.30;;;2.90;;
68310;SDS011;55157;51.036;17.058;2023-04-01T09:39:46;4.75;;;2.53;;
68310;SDS011;55157;51.036;17.058;2023-04-01T09:42:26;5.72;;;2.47;;
68310;SDS011;55157;51.036;17.058;2023-04-01T09:44:56;10.43;;;2.30;;
68310;SDS011;55157;51.036;17.058;2023-04-01T09:47:27;5.40;;;2.53;;
68310;SDS011;55157;51.036;17.058;2023-04-01T09:49:55;5.70;;;2.85;;
68310;SDS011;55157;51.036;17.058;2023-04-01T09:52:27;6.15;;;2.70;;
68310;SDS011;55157;51.036;17.058;2023-04-01T09:55:04;6.05;;;2.88;;
68310;SDS011;55157;51.036;17.058;2023-04-01T09:57:39;5.20;;;2.40;;
68310;SDS011;55157;51.036;17.058;2023-04-01T10:00:20;6.88;;;2.50;;
68310;SDS011;55157;51.036;17.058;2023-04-01T10:03:02;5.65;;;2.70;;
68310;SDS011;55157;51.036;17.058;2023-04-01T10:05:47;10.93;;;2.55;;
68310;SDS011;55157;51.036;17.058;2023-04-01T10:08:24;5.00;;;2.80;;
68310;SDS011;55157;51.036;17.058;2023-04-01T10:10:59;12.35;;;3.22;;
68310;SDS011;55157;51.036;17.058;2023-04-01T10:19:09;6.25;;;1.92;;
68310;SDS011;55157;51.036;17.058;2023-04-01T10:24:38;6.53;;;2.72;;
68310;SDS011;55157;51.036;17.058;2023-04-01T10:27:17;3.22;;;1.95;;
68310;SDS011;55157;51.036;17.058;2023-04-01T10:29:56;5.38;;;2.65;;
68310;SDS011;55157;51.036;17.058;2023-04-01T10:40:38;7.15;;;2.25;;
68310;SDS011;55157;51.036;17.058;2023-04-01T10:46:13;2.65;;;1.85;;
68310;SDS011;55157;51.036;17.058;2023-04-01T10:48:55;8.25;;;1.60;;
68310;SDS011;55157;51.036;17.058;2023-04-01T10:54:21;4.22;;;1.40;;
68310;SDS011;55157;51.036;17.058;2023-04-01T10:56:54;2.75;;;1.40;;
68310;SDS011;55157;51.036;17.058;2023-04-01T11:05:01;3.47;;;1.50;;
68310;SDS011;55157;51.036;17.058;2023-04-01T11:21:21;4.18;;;1.30;;
68310;SDS011;55157;51.036;17.058;2023-04-01T11:24:01;5.65;;;1.10;;
68310;SDS011;55157;51.036;17.058;2023-04-01T11:26:32;2.33;;;1.20;;
68310;SDS011;55157;51.036;17.058;2023-04-01T11:29:09;2.63;;;1.20;;
68310;SDS011;55157;51.036;17.058;2023-04-01T11:31:45;4.83;;;1.17;;
68310;SDS011;55157;51.036;17.058;2023-04-01T11:34:16;1.60;;;1.50;;
68310;SDS011;55157;51.036;17.058;2023-04-01T11:36:49;4.78;;;2.47;;
68310;SDS011;55157;51.036;17.058;2023-04-01T11:39:20;5.35;;;2.13;;
68310;SDS011;55157;51.036;17.058;2023-04-01T11:41:51;4.82;;;2.10;;
68310;SDS011;55157;51.036;17.058;2023-04-01T11:44:18;8.20;;;2.50;;
68310;SDS011;55157;51.036;17.058;2023-04-01T11:46:47;4.60;;;2.60;;
68310;SDS011;55157;51.036;17.058;2023-04-01T11:49:20;4.53;;;2.50;;
68310;SDS011;55157;51.036;17.058;2023-04-01T11:51:59;4.88;;;2.90;;
68310;SDS011;55157;51.036;17.058;2023-04-01T11:54:28;4.50;;;2.78;;
68310;SDS011;55157;51.036;17.058;2023-04-01T11:57:00;4.65;;;2.50;;
68310;SDS011;55157;51.036;17.058;2023-04-01T11:59:37;3.45;;;2.65;;
68310;SDS011;55157;51.036;17.058;2023-04-01T12:02:05;5.75;;;3.58;;
68310;SDS011;55157;51.036;17.058;2023-04-01T12:04:45;4.97;;;2.70;;
68310;SDS011;55157;51.036;17.058;2023-04-01T12:07:21;2.95;;;1.40;;
68310;SDS011;55157;51.036;17.058;2023-04-01T12:09:49;2.85;;;1.35;;
68310;SDS011;55157;51.036;17.058;2023-04-01T12:12:19;3.63;;;1.13;;
68310;SDS011;55157;51.036;17.058;2023-04-01T12:14:48;1.92;;;1.17;;
68310;SDS011;55157;51.036;17.058;2023-04-01T12:17:18;1.52;;;1.05;;
68310;SDS011;55157;51.036;17.058;2023-04-01T12:19:48;3.45;;;0.82;;
68310;SDS011;55157;51.036;17.058;2023-04-01T12:25:23;4.97;;;1.00;;
68310;SDS011;55157;51.036;17.058;2023-04-01T12:27:59;2.08;;;1.50;;
68310;SDS011;55157;51.036;17.058;2023-04-01T12:30:34;1.92;;;1.50;;
68310;SDS011;55157;51.036;17.058;2023-04-01T12:35:56;3.67;;;1.40;;
68310;SDS011;55157;51.036;17.058;2023-04-01T12:38:26;1.88;;;1.30;;
68310;SDS011;55157;51.036;17.058;2023-04-01T12:41:00;4.32;;;1.52;;
68310;SDS011;55157;51.036;17.058;2023-04-01T12:43:46;2.30;;;1.48;;
68310;SDS011;55157;51.036;17.058;2023-04-01T12:46:15;2.83;;;1.55;;
68310;SDS011;55157;51.036;17.058;2023-04-01T12:48:51;2.70;;;1.45;;
68310;SDS011;55157;51.036;17.058;2023-04-01T12:51:28;2.33;;;1.98;;
68310;SDS011;55157;51.036;17.058;2023-04-01T12:54:01;3.58;;;1.40;;
68310;SDS011;55157;51.036;17.058;2023-04-01T12:56:36;3.75;;;1.10;;
68310;SDS011;55157;51.036;17.058;2023-04-01T12:59:14;3.38;;;1.20;;
68310;SDS011;55157;51.036;17.058;2023-04-01T13:01:51;3.28;;;1.20;;
68310;SDS011;55157;51.036;17.058;2023-04-01T13:06:45;4.20;;;1.45;;
68310;SDS011;55157;51.036;17.058;2023-04-01T13:09:18;4.88;;;1.42;;
68310;SDS011;55157;51.036;17.058;2023-04-01T13:11:52;3.08;;;1.10;;
68310;SDS011;55157;51.036;17.058;2023-04-01T13:14:27;2.90;;;1.33;;
68310;SDS011;55157;51.036;17.058;2023-04-01T13:16:54;2.15;;;1.40;;
68310;SDS011;55157;51.036;17.058;2023-04-01T13:19:24;3.80;;;2.00;;
68310;SDS011;55157;51.036;17.058;2023-04-01T13:21:52;3.90;;;1.77;;
68310;SDS011;55157;51.036;17.058;2023-04-01T13:24:23;3.38;;;1.60;;
68310;SDS011;55157;51.036;17.058;2023-04-01T13:26:53;3.70;;;1.52;;
68310;SDS011;55157;51.036;17.058;2023-04-01T13:29:21;3.90;;;2.28;;
68310;SDS011;55157;51.036;17.058;2023-04-01T13:32:01;5.07;;;1.60;;
68310;SDS011;55157;51.036;17.058;2023-04-01T13:34:37;5.10;;;1.40;;
68310;SDS011;55157;51.036;17.058;2023-04-01T13:37:09;3.17;;;1.60;;
68310;SDS011;55157;51.036;17.058;2023-04-01T13:39:40;3.75;;;2.20;;
68310;SDS011;55157;51.036;17.058;2023-04-01T13:42:13;4.00;;;2.25;;
68310;SDS011;55157;51.036;17.058;2023-04-01T13:44:41;6.82;;;3.13;;
68310;SDS011;55157;51.036;17.058;2023-04-01T13:49:57;5.50;;;1.67;;
68310;SDS011;55157;51.036;17.058;2023-04-01T13:52:32;4.78;;;2.00;;
68310;SDS011;55157;51.036;17.058;2023-04-01T13:55:08;3.35;;;1.70;;
68310;SDS011;55157;51.036;17.058;2023-04-01T14:00:35;3.15;;;1.50;;
68310;SDS011;55157;51.036;17.058;2023-04-01T14:03:09;2.40;;;1.60;;
68310;SDS011;55157;51.036;17.058;2023-04-01T14:08:26;2.90;;;1.40;;
68310;SDS011;55157;51.036;17.058;2023-04-01T14:10:56;2.47;;;1.40;;
68310;SDS011;55157;51.036;17.058;2023-04-01T14:13:28;3.90;;;1.80;;
68310;SDS011;55157;51.036;17.058;2023-04-01T14:16:03;2.58;;;1.73;;
68310;SDS011;55157;51.036;17.058;2023-04-01T14:18:44;4.22;;;2.08;;
68310;SDS011;55157;51.036;17.058;2023-04-01T14:26:35;4.53;;;2.00;;
68310;SDS011;55157;51.036;17.058;2023-04-01T14:29:16;5.88;;;1.90;;
68310;SDS011;55157;51.036;17.058;2023-04-01T14:37:14;8.23;;;1.88;;
68310;SDS011;55157;51.036;17.058;2023-04-01T14:39:47;4.18;;;2.28;;
68310;SDS011;55157;51.036;17.058;2023-04-01T14:42:18;5.38;;;2.80;;
68310;SDS011;55157;51.036;17.058;2023-04-01T14:44:50;6.57;;;3.30;;
68310;SDS011;55157;51.036;17.058;2023-04-01T14:50:06;4.63;;;2.60;;
68310;SDS011;55157;51.036;17.058;2023-04-01T14:52:35;4.78;;;3.10;;
68310;SDS011;55157;51.036;17.058;2023-04-01T14:55:01;4.43;;;3.10;;
68310;SDS011;55157;51.036;17.058;2023-04-01T14:57:28;7.50;;;3.67;;
68310;SDS011;55157;51.036;17.058;2023-04-01T14:59:54;3.85;;;3.03;;
68310;SDS011;55157;51.036;17.058;2023-04-01T15:05:15;4.18;;;2.72;;
68310;SDS011;55157;51.036;17.058;2023-04-01T15:08:00;6.07;;;2.97;;
68310;SDS011;55157;51.036;17.058;2023-04-01T15:10:31;5.35;;;3.10;;
68310;SDS011;55157;51.036;17.058;2023-04-01T15:12:59;4.93;;;2.80;;
68310;SDS011;55157;51.036;17.058;2023-04-01T15:15:44;4.13;;;2.80;;
68310;SDS011;55157;51.036;17.058;2023-04-01T15:18:13;10.32;;;3.88;;
68310;SDS011;55157;51.036;17.058;2023-04-01T15:23:39;6.55;;;4.35;;
68310;SDS011;55157;51.036;17.058;2023-04-01T15:26:13;6.50;;;4.13;;
68310;SDS011;55157;51.036;17.058;2023-04-01T15:28:42;5.93;;;4.75;;
68310;SDS011;55157;51.036;17.058;2023-04-01T15:31:10;7.53;;;4.40;;
68310;SDS011;55157;51.036;17.058;2023-04-01T15:33:39;11.13;;;4.55;;
68310;SDS011;55157;51.036;17.058;2023-04-01T15:36:11;6.60;;;4.95;;
68310;SDS011;55157;51.036;17.058;2023-04-01T15:38:42;7.40;;;4.93;;
68310;SDS011;55157;51.036;17.058;2023-04-01T15:41:11;8.05;;;4.10;;
68310;SDS011;55157;51.036;17.058;2023-04-01T15:43:41;4.95;;;4.13;;
68310;SDS011;55157;51.036;17.058;2023-04-01T15:46:14;6.05;;;3.90;;
68310;SDS011;55157;51.036;17.058;2023-04-01T15:48:50;7.78;;;4.18;;
68310;SDS011;55157;51.036;17.058;2023-04-01T15:51:22;6.63;;;3.88;;
68310;SDS011;55157;51.036;17.058;2023-04-01T15:56:40;8.18;;;4.22;;
68310;SDS011;55157;51.036;17.058;2023-04-01T15:59:11;8.68;;;4.20;;
68310;SDS011;55157;51.036;17.058;2023-04-01T16:01:43;9.77;;;4.80;;
68310;SDS011;55157;51.036;17.058;2023-04-01T16:04:16;11.65;;;5.70;;
68310;SDS011;55157;51.036;17.058;2023-04-01T16:06:47;6.80;;;5.25;;
68310;SDS011;55157;51.036;17.058;2023-04-01T16:09:22;8.25;;;5.07;;
68310;SDS011;55157;51.036;17.058;2023-04-01T16:11:53;7.00;;;5.55;;
68310;SDS011;55157;51.036;17.058;2023-04-01T16:14:23;10.30;;;5.10;;
68310;SDS011;55157;51.036;17.058;2023-04-01T16:16:58;5.55;;;4.57;;